Metar Aviation Weather Data     EFOU Oulu Airport
Temperature
37°F Temperature
34°F Dewpoint
87% Humidity



Wind
7 MPH
11 KM/H
3 M/S
6 KTS



150°
SSE
Current Conditions

Clear Clear
Pressure 1007.92 (hPa) - 29.76 (inHg)
Visibility 6.2 (mile) - 10 (km)
Airport
Airport-code EFOU

Location: Oulu Airport
Distance: 83 (mi)

Metar:
EFOU 011750Z AUTO 15006KT CAVOK 03/01 Q1008

Time: 01-10-2022 20:50 EEST